Time;durP1;ratioP1;P1;durP2;ratioP2;P2;SDS_P1;SDS_P2;PMS_P1;PMS_P2;Temp;Humidity;BMP_temperature;BMP_pressure;BME280_temperature;BME280_humidity;BME280_pressure;Samples;Min_cycle;Max_cycle;Signal;HPM_P1;HPM_P2
2021/12/20 00:01:26;;;;;;;1.90;1.90;;;;;;;;;;5094575;28;20464;-73
2021/12/20 00:03:52;;;;;;;2.20;2.20;;;;;;;;;;5094576;28;20424;-73
2021/12/20 00:06:18;;;;;;;1.97;1.87;;;;;;;;;;5093711;28;20474;-74
2021/12/20 00:08:44;;;;;;;2.43;2.33;;;;;;;;;;5094593;28;20423;-73
2021/12/20 00:11:10;;;;;;;1.87;1.77;;;;;;;;;;5094573;28;20408;-73
2021/12/20 00:13:36;;;;;;;2.53;2.33;;;;;;;;;;5094742;28;20493;-74
2021/12/20 00:16:02;;;;;;;1.73;1.73;;;;;;;;;;5094543;28;20503;-74
2021/12/20 00:18:28;;;;;;;1.83;1.83;;;;;;;;;;5094634;28;20772;-73
2021/12/20 00:20:54;;;;;;;2.07;2.07;;;;;;;;;;5109983;28;20468;-73
2021/12/20 00:23:20;;;;;;;2.80;2.70;;;;;;;;;;5094526;28;20488;-73
2021/12/20 00:25:48;;;;;;;2.23;2.23;;;;;;;;;;5094423;28;20946;-74
2021/12/20 00:31:18;;;;;;;2.03;2.03;;;;;;;;;;5094245;28;20395;-73
2021/12/20 00:33:44;;;;;;;2.50;2.30;;;;;;;;;;5094115;28;20421;-74
2021/12/20 00:36:10;;;;;;;2.40;2.40;;;;;;;;;;5094712;28;20408;-74
2021/12/20 00:41:21;;;;;;;2.43;2.33;;;;;;;;;;5094167;28;20501;-74
2021/12/20 00:43:47;;;;;;;2.47;2.47;;;;;;;;;;5109542;28;20417;-74
2021/12/20 00:46:14;;;;;;;2.47;2.47;;;;;;;;;;5093791;28;20459;-74
2021/12/20 00:48:40;;;;;;;2.60;2.50;;;;;;;;;;5094062;28;20412;-73
2021/12/20 00:51:06;;;;;;;3.30;3.20;;;;;;;;;;5093966;28;20550;-74
2021/12/20 00:53:32;;;;;;;2.90;2.70;;;;;;;;;;5093661;28;20464;-74
2021/12/20 00:55:58;;;;;;;1.77;1.77;;;;;;;;;;5093579;28;20423;-74
2021/12/20 00:58:24;;;;;;;1.70;1.70;;;;;;;;;;5093866;28;20963;-74
2021/12/20 01:00:51;;;;;;;2.13;2.13;;;;;;;;;;5093576;28;20457;-74
2021/12/20 01:03:18;;;;;;;2.73;2.63;;;;;;;;;;5093897;28;20448;-74
2021/12/20 01:05:44;;;;;;;2.10;2.10;;;;;;;;;;5093195;28;20409;-74
2021/12/20 01:08:11;;;;;;;2.77;2.57;;;;;;;;;;5093553;28;20423;-73
2021/12/20 01:10:39;;;;;;;2.40;2.40;;;;;;;;;;5093460;28;20419;-74
2021/12/20 01:13:06;;;;;;;2.10;2.10;;;;;;;;;;5093641;28;20470;-73
2021/12/20 01:15:34;;;;;;;4.17;3.87;;;;;;;;;;5093233;28;20458;-74
2021/12/20 01:18:01;;;;;;;3.00;2.90;;;;;;;;;;5093694;28;20424;-74
2021/12/20 01:20:27;;;;;;;2.27;2.27;;;;;;;;;;5093240;28;20417;-74
2021/12/20 01:22:53;;;;;;;2.53;2.53;;;;;;;;;;5093333;28;20412;-74
2021/12/20 01:25:20;;;;;;;2.50;2.40;;;;;;;;;;5093180;28;20417;-74
2021/12/20 01:27:46;;;;;;;2.50;2.50;;;;;;;;;;5093445;28;20413;-74
2021/12/20 01:30:13;;;;;;;2.60;2.47;;;;;;;;;;5093535;28;20517;-74
2021/12/20 01:32:39;;;;;;;2.63;2.50;;;;;;;;;;5093446;28;20435;-74
2021/12/20 01:35:06;;;;;;;2.70;2.60;;;;;;;;;;5092868;28;20412;-74
2021/12/20 01:37:32;;;;;;;2.10;2.10;;;;;;;;;;5093490;28;20412;-74
2021/12/20 01:39:59;;;;;;;3.00;2.90;;;;;;;;;;5092670;28;20748;-74
2021/12/20 01:42:26;;;;;;;2.80;2.70;;;;;;;;;;5093340;28;20213;-74
2021/12/20 01:44:56;;;;;;;2.60;2.07;;;;;;;;;;5093159;28;20452;-74
2021/12/20 01:47:22;;;;;;;2.67;2.57;;;;;;;;;;5093204;28;20397;-74
2021/12/20 01:50:01;;;;;;;2.33;2.23;;;;;;;;;;5093044;28;20420;-74
2021/12/20 01:52:30;;;;;;;2.60;2.60;;;;;;;;;;5093240;28;20389;-74
2021/12/20 01:54:56;;;;;;;3.23;3.13;;;;;;;;;;5092673;28;20815;-74
2021/12/20 01:57:23;;;;;;;3.33;3.23;;;;;;;;;;5093041;28;20424;-74
2021/12/20 01:59:49;;;;;;;3.00;2.90;;;;;;;;;;5092978;28;20441;-74
2021/12/20 02:02:15;;;;;;;2.47;2.47;;;;;;;;;;5093079;28;20975;-74
2021/12/20 02:04:48;;;;;;;2.53;2.47;;;;;;;;;;5093098;28;20413;-74
2021/12/20 02:07:33;;;;;;;11.50;7.00;;;;;;;;;;5093069;28;20892;-73
2021/12/20 02:09:59;;;;;;;7.17;4.67;;;;;;;;;;5093220;28;20393;-74
2021/12/20 02:12:25;;;;;;;4.40;4.00;;;;;;;;;;5093044;28;20421;-74
2021/12/20 02:14:52;;;;;;;3.60;2.40;;;;;;;;;;5093030;28;20464;-74
2021/12/20 02:17:18;;;;;;;2.40;2.30;;;;;;;;;;5092548;28;20420;-74
2021/12/20 02:19:44;;;;;;;2.20;2.20;;;;;;;;;;5093212;28;20417;-74
2021/12/20 02:22:10;;;;;;;2.27;2.27;;;;;;;;;;5092949;28;20472;-74
2021/12/20 02:24:35;;;;;;;2.30;2.30;;;;;;;;;;5092676;28;20477;-74
2021/12/20 02:27:01;;;;;;;2.23;2.23;;;;;;;;;;5093179;28;20495;-74
2021/12/20 02:29:43;;;;;;;2.83;2.63;;;;;;;;;;5095631;28;20907;-74
2021/12/20 02:37:39;;;;;;;2.50;2.40;;;;;;;;;;5096910;28;20448;-74
2021/12/20 02:40:05;;;;;;;2.77;2.67;;;;;;;;;;5096334;28;20912;-74
2021/12/20 02:42:41;;;;;;;2.80;2.70;;;;;;;;;;5111950;28;20472;-74
2021/12/20 02:45:13;;;;;;;4.97;4.03;;;;;;;;;;5096205;28;20940;-74
2021/12/20 02:47:40;;;;;;;3.17;2.97;;;;;;;;;;5096496;28;20409;-74
2021/12/20 02:50:06;;;;;;;2.43;2.43;;;;;;;;;;5096167;28;20507;-74
2021/12/20 02:52:32;;;;;;;2.20;2.20;;;;;;;;;;5095856;28;20977;-74
2021/12/20 02:54:59;;;;;;;2.57;2.47;;;;;;;;;;5096368;28;20424;-74
2021/12/20 02:57:25;;;;;;;2.80;2.80;;;;;;;;;;5096291;28;20431;-74
2021/12/20 02:59:51;;;;;;;2.40;2.40;;;;;;;;;;5095619;28;20928;-73
2021/12/20 03:02:18;;;;;;;2.60;2.50;;;;;;;;;;5095782;28;20468;-74
2021/12/20 03:04:44;;;;;;;2.53;2.50;;;;;;;;;;5095913;28;20405;-74
2021/12/20 03:07:15;;;;;;;2.90;2.80;;;;;;;;;;5095758;28;20901;-74
2021/12/20 03:09:48;;;;;;;2.90;2.80;;;;;;;;;;5095829;28;20408;-74
2021/12/20 03:12:15;;;;;;;2.60;2.50;;;;;;;;;;5096039;28;20393;-75
2021/12/20 03:14:44;;;;;;;2.80;2.70;;;;;;;;;;5095719;28;20401;-75
2021/12/20 03:17:10;;;;;;;2.73;2.63;;;;;;;;;;5095746;28;20436;-74
2021/12/20 03:19:36;;;;;;;2.37;2.27;;;;;;;;;;5095608;28;20396;-74
2021/12/20 03:22:03;;;;;;;2.90;2.80;;;;;;;;;;5095774;28;20534;-74
2021/12/20 03:24:29;;;;;;;2.90;2.70;;;;;;;;;;5095393;28;20920;-74
2021/12/20 03:26:55;;;;;;;2.37;2.30;;;;;;;;;;5096014;28;20466;-74
2021/12/20 03:29:21;;;;;;;2.80;2.70;;;;;;;;;;5095584;28;20432;-74
2021/12/20 03:31:48;;;;;;;3.00;2.90;;;;;;;;;;5095390;28;20447;-74
2021/12/20 03:34:15;;;;;;;2.13;2.03;;;;;;;;;;5095274;28;20405;-74
2021/12/20 03:36:41;;;;;;;3.60;3.30;;;;;;;;;;5095402;28;20776;-74
2021/12/20 03:42:10;;;;;;;1.93;1.93;;;;;;;;;;5095066;28;20954;-74
2021/12/20 03:44:43;;;;;;;3.47;3.33;;;;;;;;;;5095228;28;20409;-74
2021/12/20 03:47:09;;;;;;;2.97;2.77;;;;;;;;;;5110755;28;20416;-74
2021/12/20 03:49:35;;;;;;;2.73;2.63;;;;;;;;;;5095234;28;20412;-73
2021/12/20 03:52:04;;;;;;;2.90;2.80;;;;;;;;;;5094925;28;20503;-73
2021/12/20 03:54:30;;;;;;;2.53;2.43;;;;;;;;;;5094812;28;20550;-74
2021/12/20 03:56:55;;;;;;;3.80;3.70;;;;;;;;;;5095189;28;20521;-74
2021/12/20 03:59:21;;;;;;;2.20;2.20;;;;;;;;;;5094704;28;20889;-74
2021/12/20 04:01:47;;;;;;;3.27;3.13;;;;;;;;;;5094694;28;20468;-74
2021/12/20 04:04:14;;;;;;;2.63;2.53;;;;;;;;;;5094947;28;20405;-73
2021/12/20 04:06:41;;;;;;;4.43;4.13;;;;;;;;;;5095225;28;20535;-74
2021/12/20 04:09:07;;;;;;;2.50;2.40;;;;;;;;;;5110285;28;20509;-74
2021/12/20 04:11:33;;;;;;;3.80;3.60;;;;;;;;;;5094857;28;20430;-74
2021/12/20 04:13:59;;;;;;;3.40;3.30;;;;;;;;;;5095567;28;20462;-74
2021/12/20 04:16:25;;;;;;;2.67;2.53;;;;;;;;;;5094292;28;20413;-74
2021/12/20 04:18:51;;;;;;;2.90;2.80;;;;;;;;;;5094341;28;20416;-74
2021/12/20 04:21:17;;;;;;;4.50;3.00;;;;;;;;;;5095034;28;20521;-74
2021/12/20 04:23:43;;;;;;;3.20;3.00;;;;;;;;;;5094661;28;20412;-74
2021/12/20 04:26:09;;;;;;;3.20;3.00;;;;;;;;;;5094139;28;20424;-73
2021/12/20 04:28:35;;;;;;;3.23;3.13;;;;;;;;;;5109816;28;20453;-74
2021/12/20 04:31:01;;;;;;;3.10;2.97;;;;;;;;;;5094445;28;20423;-74
2021/12/20 04:33:27;;;;;;;3.23;3.13;;;;;;;;;;5094406;28;20420;-73
2021/12/20 04:35:53;;;;;;;3.17;2.97;;;;;;;;;;5094552;28;20420;-74
2021/12/20 04:38:20;;;;;;;3.47;3.33;;;;;;;;;;5094106;28;20761;-74
2021/12/20 04:40:46;;;;;;;2.97;2.87;;;;;;;;;;5094218;28;20468;-73
2021/12/20 04:43:12;;;;;;;3.57;3.27;;;;;;;;;;5093998;28;20423;-74
2021/12/20 04:45:38;;;;;;;3.53;3.30;;;;;;;;;;5094203;28;20872;-73
2021/12/20 04:48:04;;;;;;;3.23;3.03;;;;;;;;;;5093660;28;20425;-74
2021/12/20 04:50:30;;;;;;;2.67;2.67;;;;;;;;;;5093899;28;20477;-73
2021/12/20 04:52:57;;;;;;;4.00;3.70;;;;;;;;;;5093357;28;20960;-74
2021/12/20 04:55:24;;;;;;;2.73;2.67;;;;;;;;;;5094179;28;21001;-74
2021/12/20 04:57:50;;;;;;;2.90;2.80;;;;;;;;;;5093387;28;20428;-74
2021/12/20 05:00:19;;;;;;;2.00;2.00;;;;;;;;;;5110079;28;20437;-74
2021/12/20 05:02:45;;;;;;;3.20;3.00;;;;;;;;;;5093850;28;20551;-74
2021/12/20 05:05:11;;;;;;;3.10;3.00;;;;;;;;;;5093594;28;20417;-74
2021/12/20 05:07:39;;;;;;;3.70;3.50;;;;;;;;;;5093544;28;20417;-73
2021/12/20 05:10:12;;;;;;;2.47;2.47;;;;;;;;;;5093499;28;20416;-74
2021/12/20 05:12:38;;;;;;;3.50;3.30;;;;;;;;;;5093861;28;20518;-74
2021/12/20 05:15:05;;;;;;;4.10;3.90;;;;;;;;;;5093473;28;20843;-74
2021/12/20 05:17:31;;;;;;;3.40;3.13;;;;;;;;;;5093363;28;20416;-73
2021/12/20 05:19:57;;;;;;;2.90;2.80;;;;;;;;;;5093661;28;20782;-74
2021/12/20 05:22:23;;;;;;;3.43;3.23;;;;;;;;;;5108936;28;20984;-74
2021/12/20 05:24:49;;;;;;;3.47;3.37;;;;;;;;;;5093642;28;20409;-73
2021/12/20 05:27:15;;;;;;;2.90;2.70;;;;;;;;;;5093744;28;20897;-74
2021/12/20 05:29:41;;;;;;;5.13;2.80;;;;;;;;;;5092118;28;20773;-72
2021/12/20 05:32:07;;;;;;;3.33;3.23;;;;;;;;;;5093255;28;20417;-72
2021/12/20 05:34:34;;;;;;;3.30;3.10;;;;;;;;;;5093459;28;20448;-72
2021/12/20 05:37:01;;;;;;;2.87;2.77;;;;;;;;;;5093190;28;20417;-72
2021/12/20 05:42:30;;;;;;;7.90;3.23;;;;;;;;;;5093169;28;20896;-72
2021/12/20 05:44:56;;;;;;;3.57;3.47;;;;;;;;;;5093144;28;20939;-72
2021/12/20 05:47:22;;;;;;;3.43;3.30;;;;;;;;;;5093426;28;20507;-73
2021/12/20 05:49:48;;;;;;;3.40;3.10;;;;;;;;;;5093174;28;20412;-72
2021/12/20 05:52:14;;;;;;;3.83;3.73;;;;;;;;;;5108707;28;20944;-72
2021/12/20 05:54:41;;;;;;;2.60;2.50;;;;;;;;;;5093587;28;20503;-72
2021/12/20 05:57:07;;;;;;;3.00;2.90;;;;;;;;;;5092908;28;20439;-72
2021/12/20 05:59:33;;;;;;;3.13;2.93;;;;;;;;;;5092906;28;20893;-72
2021/12/20 06:01:59;;;;;;;3.17;3.03;;;;;;;;;;5092799;28;20885;-72
2021/12/20 06:04:25;;;;;;;3.67;3.57;;;;;;;;;;5095753;28;20440;-72
2021/12/20 06:06:51;;;;;;;2.77;2.70;;;;;;;;;;5097306;28;20444;-73
2021/12/20 06:12:20;;;;;;;4.03;3.80;;;;;;;;;;5096911;28;20387;-72
2021/12/20 06:14:46;;;;;;;3.40;3.30;;;;;;;;;;5096813;28;20424;-72
2021/12/20 06:17:12;;;;;;;3.50;3.30;;;;;;;;;;5097066;28;20416;-72
2021/12/20 06:19:39;;;;;;;4.03;3.63;;;;;;;;;;5096527;28;20416;-72
2021/12/20 06:22:07;;;;;;;2.70;2.70;;;;;;;;;;5096871;28;20876;-72
2021/12/20 06:24:34;;;;;;;2.70;2.60;;;;;;;;;;5096638;28;20477;-72
2021/12/20 06:27:00;;;;;;;4.00;3.80;;;;;;;;;;5096635;28;20455;-72
2021/12/20 06:29:26;;;;;;;5.47;3.80;;;;;;;;;;5096408;28;20475;-72
2021/12/20 06:31:52;;;;;;;3.90;3.70;;;;;;;;;;5096724;28;20432;-72
2021/12/20 06:34:18;;;;;;;3.57;3.47;;;;;;;;;;5096719;28;20884;-72
2021/12/20 06:36:44;;;;;;;2.60;2.50;;;;;;;;;;5096728;28;20474;-73
2021/12/20 06:39:10;;;;;;;2.90;2.80;;;;;;;;;;5096362;28;20942;-73
2021/12/20 06:41:37;;;;;;;2.87;2.80;;;;;;;;;;5096048;28;20850;-72
2021/12/20 06:44:04;;;;;;;3.90;3.60;;;;;;;;;;5096166;28;20443;-72
2021/12/20 06:46:31;;;;;;;3.97;3.73;;;;;;;;;;5112265;28;20821;-72
2021/12/20 06:48:57;;;;;;;8.83;5.10;;;;;;;;;;5096130;28;20460;-72
2021/12/20 06:51:23;;;;;;;4.60;4.30;;;;;;;;;;5096357;28;20448;-71
2021/12/20 06:53:49;;;;;;;3.47;3.27;;;;;;;;;;5095968;28;20570;-72
2021/12/20 06:56:15;;;;;;;3.70;3.60;;;;;;;;;;5095986;28;20508;-72
2021/12/20 06:58:41;;;;;;;3.10;3.00;;;;;;;;;;5095884;28;20915;-72
2021/12/20 07:01:07;;;;;;;4.00;3.73;;;;;;;;;;5095866;28;20456;-72
2021/12/20 07:03:33;;;;;;;3.03;2.83;;;;;;;;;;5095908;28;20909;-73
2021/12/20 07:05:59;;;;;;;3.10;3.00;;;;;;;;;;5111542;28;20412;-73
2021/12/20 07:08:25;;;;;;;3.93;3.63;;;;;;;;;;5094935;28;20961;-73
2021/12/20 07:10:51;;;;;;;3.33;3.13;;;;;;;;;;5111315;28;20428;-71
2021/12/20 07:13:17;;;;;;;2.60;2.50;;;;;;;;;;5095447;28;20454;-73
2021/12/20 07:15:43;;;;;;;2.97;2.87;;;;;;;;;;5095501;28;20416;-72
2021/12/20 07:18:09;;;;;;;4.07;3.97;;;;;;;;;;5095383;28;20423;-72
2021/12/20 07:20:35;;;;;;;2.70;2.70;;;;;;;;;;5095436;28;20786;-73
2021/12/20 07:23:01;;;;;;;3.80;3.60;;;;;;;;;;5111082;28;20805;-72
2021/12/20 07:25:27;;;;;;;3.80;3.67;;;;;;;;;;5095512;28;20914;-72
2021/12/20 07:27:53;;;;;;;5.30;5.00;;;;;;;;;;5095926;28;20429;-72
2021/12/20 07:30:20;;;;;;;4.97;4.77;;;;;;;;;;5095466;28;20420;-72
2021/12/20 07:32:46;;;;;;;4.27;3.97;;;;;;;;;;5094992;28;20934;-72
2021/12/20 07:35:12;;;;;;;3.77;3.57;;;;;;;;;;5095048;28;20533;-72
2021/12/20 07:37:39;;;;;;;3.47;3.37;;;;;;;;;;5095087;28;20459;-72
2021/12/20 07:40:07;;;;;;;3.70;3.50;;;;;;;;;;5094842;28;20417;-72
2021/12/20 07:42:33;;;;;;;3.57;3.30;;;;;;;;;;5094770;28;20468;-72
2021/12/20 07:45:00;;;;;;;3.10;2.90;;;;;;;;;;5094859;28;20412;-72
2021/12/20 07:47:25;;;;;;;3.00;2.90;;;;;;;;;;5094890;28;20469;-72
2021/12/20 07:49:52;;;;;;;3.33;3.23;;;;;;;;;;5094490;28;20504;-72
2021/12/20 07:52:18;;;;;;;3.63;3.13;;;;;;;;;;5094802;28;20435;-72
2021/12/20 07:54:44;;;;;;;30.20;19.50;;;;;;;;;;5094338;28;20460;-72
2021/12/20 07:57:10;;;;;;;14.13;11.53;;;;;;;;;;5094909;28;20781;-72
2021/12/20 07:59:36;;;;;;;6.00;5.50;;;;;;;;;;5094719;28;20421;-72
2021/12/20 08:02:02;;;;;;;3.97;3.77;;;;;;;;;;5094987;28;20464;-74
2021/12/20 08:04:28;;;;;;;3.40;3.30;;;;;;;;;;5094545;28;20420;-72
2021/12/20 08:06:54;;;;;;;3.33;3.23;;;;;;;;;;5094921;28;20428;-72
2021/12/20 08:09:20;;;;;;;3.50;3.40;;;;;;;;;;5094132;28;20408;-73
2021/12/20 08:11:46;;;;;;;2.50;2.40;;;;;;;;;;5094994;28;20896;-75
2021/12/20 08:14:12;;;;;;;3.50;3.20;;;;;;;;;;5094132;28;20427;-72
2021/12/20 08:16:39;;;;;;;3.80;3.50;;;;;;;;;;5094250;28;20412;-71
2021/12/20 08:19:05;;;;;;;3.43;3.23;;;;;;;;;;5094084;28;20791;-72
2021/12/20 08:21:31;;;;;;;3.10;3.00;;;;;;;;;;5094248;28;20463;-71
2021/12/20 08:23:57;;;;;;;4.17;3.90;;;;;;;;;;5093969;28;20550;-73
2021/12/20 08:26:23;;;;;;;3.30;3.20;;;;;;;;;;5093117;28;20421;-72
2021/12/20 08:31:54;;;;;;;3.00;2.90;;;;;;;;;;5094025;28;20392;-72
2021/12/20 08:34:20;;;;;;;3.13;2.93;;;;;;;;;;5093990;28;20471;-73
2021/12/20 08:36:46;;;;;;;3.17;3.03;;;;;;;;;;5094250;28;20416;-72
2021/12/20 08:39:17;;;;;;;3.20;3.10;;;;;;;;;;5094069;28;20421;-72
2021/12/20 08:41:43;;;;;;;3.00;2.90;;;;;;;;;;5093960;28;20468;-72
2021/12/20 08:44:09;;;;;;;3.00;2.83;;;;;;;;;;5094002;28;20416;-75
2021/12/20 08:46:35;;;;;;;3.23;3.03;;;;;;;;;;5094220;28;20496;-72
2021/12/20 08:49:01;;;;;;;3.40;3.20;;;;;;;;;;5093852;28;20986;-72
2021/12/20 08:51:27;;;;;;;4.20;3.90;;;;;;;;;;5093713;28;20758;-71
2021/12/20 08:53:53;;;;;;;4.17;3.93;;;;;;;;;;5093436;28;20553;-70
2021/12/20 08:56:20;;;;;;;3.87;3.40;;;;;;;;;;5093803;28;20420;-71
2021/12/20 09:01:49;;;;;;;3.83;3.60;;;;;;;;;;5093435;28;20455;-73
2021/12/20 09:04:16;;;;;;;3.07;2.97;;;;;;;;;;5093242;28;20408;-71
2021/12/20 09:06:42;;;;;;;2.87;2.87;;;;;;;;;;5093466;28;20927;-72
2021/12/20 09:09:10;;;;;;;3.10;2.90;;;;;;;;;;5093585;28;20404;-72
2021/12/20 09:11:37;;;;;;;3.53;3.43;;;;;;;;;;5093608;28;20417;-73
2021/12/20 09:14:03;;;;;;;2.90;2.80;;;;;;;;;;5093337;28;20424;-72
2021/12/20 09:16:29;;;;;;;2.50;2.50;;;;;;;;;;5093137;28;20423;-73
2021/12/20 09:18:55;;;;;;;4.27;4.00;;;;;;;;;;5093129;28;20416;-73
2021/12/20 09:21:21;;;;;;;3.60;3.50;;;;;;;;;;5093169;28;20509;-73
2021/12/20 09:23:47;;;;;;;3.30;3.20;;;;;;;;;;5093028;28;20420;-73
2021/12/20 09:26:14;;;;;;;6.00;4.00;;;;;;;;;;5093484;28;20413;-73
2021/12/20 09:28:40;;;;;;;4.50;4.20;;;;;;;;;;5093259;28;20409;-73
2021/12/20 09:31:07;;;;;;;3.93;3.73;;;;;;;;;;5093299;28;20413;-72
2021/12/20 09:33:33;;;;;;;3.60;3.50;;;;;;;;;;5093411;28;20778;-73
2021/12/20 09:35:59;;;;;;;4.57;3.50;;;;;;;;;;5093151;28;20941;-72
2021/12/20 09:44:01;;;;;;;3.63;3.50;;;;;;;;;;5092880;28;20444;-72
2021/12/20 09:46:28;;;;;;;4.27;4.07;;;;;;;;;;5093159;28;20756;-73
2021/12/20 09:48:54;;;;;;;5.10;4.70;;;;;;;;;;5092717;28;20432;-73
2021/12/20 09:51:21;;;;;;;4.43;4.13;;;;;;;;;;5092981;28;20550;-72
2021/12/20 09:53:47;;;;;;;6.87;6.10;;;;;;;;;;5092729;28;20468;-72
2021/12/20 09:56:14;;;;;;;3.83;3.73;;;;;;;;;;5093121;28;20424;-72
2021/12/20 09:58:40;;;;;;;8.20;5.43;;;;;;;;;;5093081;28;20405;-72
2021/12/20 10:01:08;;;;;;;5.07;4.80;;;;;;;;;;5092592;28;20820;-72
2021/12/20 10:03:34;;;;;;;6.23;5.73;;;;;;;;;;5092398;28;20893;-73
2021/12/20 10:06:00;;;;;;;5.60;5.07;;;;;;;;;;5093009;28;20440;-73
2021/12/20 10:08:35;;;;;;;13.60;5.60;;;;;;;;;;5092606;28;20800;-73
2021/12/20 10:11:03;;;;;;;4.60;4.20;;;;;;;;;;5093013;28;20392;-72
2021/12/20 10:13:31;;;;;;;6.40;5.83;;;;;;;;;;5092478;28;20475;-73
2021/12/20 10:15:58;;;;;;;6.33;5.73;;;;;;;;;;5108421;28;20431;-74
2021/12/20 10:18:24;;;;;;;5.00;4.70;;;;;;;;;;5092689;28;20408;-72
2021/12/20 10:20:58;;;;;;;5.03;4.63;;;;;;;;;;5092760;28;20844;-72
2021/12/20 10:23:25;;;;;;;7.60;6.23;;;;;;;;;;5092160;28;20869;-72
2021/12/20 10:25:53;;;;;;;4.83;4.43;;;;;;;;;;5092603;28;20408;-72
2021/12/20 10:28:22;;;;;;;7.43;5.67;;;;;;;;;;5092637;28;20526;-73
2021/12/20 10:30:50;;;;;;;5.20;4.70;;;;;;;;;;5092594;28;20776;-73
2021/12/20 10:33:21;;;;;;;6.80;6.03;;;;;;;;;;5092769;28;20413;-73
2021/12/20 10:35:52;;;;;;;5.87;5.10;;;;;;;;;;5092856;28;20408;-73
2021/12/20 10:38:18;;;;;;;6.97;6.27;;;;;;;;;;5092337;28;20423;-73
2021/12/20 10:40:52;;;;;;;5.17;4.87;;;;;;;;;;5092755;28;20409;-75
2021/12/20 10:43:19;;;;;;;5.20;4.80;;;;;;;;;;5092441;28;20409;-72
2021/12/20 10:45:45;;;;;;;4.53;4.33;;;;;;;;;;5092463;28;20409;-72
2021/12/20 10:48:12;;;;;;;4.60;4.27;;;;;;;;;;5092126;28;20428;-73
2021/12/20 10:50:44;;;;;;;12.23;9.57;;;;;;;;;;5095016;28;20424;-73
2021/12/20 10:53:13;;;;;;;5.10;4.80;;;;;;;;;;5095763;28;20456;-73
2021/12/20 10:55:42;;;;;;;6.77;6.27;;;;;;;;;;5096818;28;20470;-72
2021/12/20 10:58:46;;;;;;;7.07;6.53;;;;;;;;;;5095945;28;20470;-73
2021/12/20 11:01:17;;;;;;;4.93;4.57;;;;;;;;;;5033767;28;20852;-72
2021/12/20 11:03:45;;;;;;;5.07;4.73;;;;;;;;;;5033241;28;20411;-73
2021/12/20 11:11:30;;;;;;;6.30;5.73;;;;;;;;;;5095997;28;20476;-73
2021/12/20 11:13:58;;;;;;;5.30;4.93;;;;;;;;;;5095340;28;20423;-73
2021/12/20 11:16:31;;;;;;;4.90;4.60;;;;;;;;;;5095544;28;20436;-72
2021/12/20 11:19:09;;;;;;;6.60;5.70;;;;;;;;;;5095529;28;20424;-73
2021/12/20 11:21:36;;;;;;;8.00;7.00;;;;;;;;;;5096009;28;20858;-72
2021/12/20 11:24:02;;;;;;;76.43;27.23;;;;;;;;;;5110904;28;20428;-72
2021/12/20 11:26:28;;;;;;;4.10;3.80;;;;;;;;;;5095463;28;20889;-72
2021/12/20 11:28:58;;;;;;;6.13;4.23;;;;;;;;;;5095114;28;20408;-72
2021/12/20 11:31:24;;;;;;;5.17;4.87;;;;;;;;;;5095346;28;20412;-73
2021/12/20 11:33:50;;;;;;;4.37;4.03;;;;;;;;;;5095080;28;20450;-73
2021/12/20 11:36:16;;;;;;;4.53;4.27;;;;;;;;;;5095103;28;20413;-73
2021/12/20 11:41:45;;;;;;;6.17;5.77;;;;;;;;;;5095056;28;20607;-73
2021/12/20 11:44:19;;;;;;;4.67;4.40;;;;;;;;;;5094910;28;20417;-72
2021/12/20 11:46:52;;;;;;;4.77;4.53;;;;;;;;;;5095436;28;20421;-72
2021/12/20 11:49:20;;;;;;;6.93;4.70;;;;;;;;;;5094872;28;20411;-73
2021/12/20 11:51:56;;;;;;;5.50;5.00;;;;;;;;;;5094898;28;20447;-72
2021/12/20 11:54:38;;;;;;;5.03;4.60;;;;;;;;;;5093427;28;20567;-73
2021/12/20 11:57:05;;;;;;;5.67;5.30;;;;;;;;;;5094671;28;20912;-73
2021/12/20 11:59:48;;;;;;;4.53;4.10;;;;;;;;;;5094776;28;20455;-73
2021/12/20 12:02:24;;;;;;;5.90;5.30;;;;;;;;;;5093595;28;20921;-73
2021/12/20 12:04:57;;;;;;;4.40;4.10;;;;;;;;;;5094331;28;20416;-72
2021/12/20 12:07:24;;;;;;;4.60;3.83;;;;;;;;;;5094477;28;20985;-73
2021/12/20 12:09:57;;;;;;;5.53;5.13;;;;;;;;;;5094589;28;20413;-73
2021/12/20 12:12:24;;;;;;;7.20;6.53;;;;;;;;;;5094693;28;20492;-72
2021/12/20 12:15:02;;;;;;;5.50;4.30;;;;;;;;;;5094602;28;20503;-73
2021/12/20 12:17:48;;;;;;;5.87;5.47;;;;;;;;;;5094359;28;20872;-73
2021/12/20 12:20:14;;;;;;;8.93;5.27;;;;;;;;;;5094757;28;20876;-73
2021/12/20 12:22:44;;;;;;;4.63;4.30;;;;;;;;;;5093793;28;20464;-72
2021/12/20 12:25:15;;;;;;;6.60;6.10;;;;;;;;;;5094015;28;20873;-73
2021/12/20 12:27:44;;;;;;;5.13;4.83;;;;;;;;;;5092314;28;20421;-73
2021/12/20 12:30:12;;;;;;;6.20;5.60;;;;;;;;;;5094139;28;20423;-72
2021/12/20 12:32:59;;;;;;;5.43;5.10;;;;;;;;;;5094085;28;20892;-72
2021/12/20 12:35:41;;;;;;;5.73;5.33;;;;;;;;;;5079015;28;20458;-72
2021/12/20 12:38:16;;;;;;;4.67;4.47;;;;;;;;;;5109428;28;20424;-73
2021/12/20 12:40:45;;;;;;;5.63;5.10;;;;;;;;;;5094341;28;20450;-73
2021/12/20 12:43:11;;;;;;;7.90;6.40;;;;;;;;;;5093571;28;20420;-75
2021/12/20 12:45:50;;;;;;;4.70;4.40;;;;;;;;;;5109772;28;20463;-74
2021/12/20 12:48:35;;;;;;;10.37;5.07;;;;;;;;;;5094266;28;20809;-74
2021/12/20 12:51:10;;;;;;;6.50;6.07;;;;;;;;;;5109365;28;20416;-73
2021/12/20 12:53:47;;;;;;;12.87;5.10;;;;;;;;;;5093225;28;20472;-73
2021/12/20 12:56:26;;;;;;;6.87;5.60;;;;;;;;;;5093666;28;20574;-73
2021/12/20 12:59:11;;;;;;;7.53;6.90;;;;;;;;;;5093481;28;20416;-73
2021/12/20 13:02:09;;;;;;;11.60;5.87;;;;;;;;;;5093714;28;20534;-73
2021/12/20 13:04:44;;;;;;;5.13;4.83;;;;;;;;;;5048282;28;20923;-73
2021/12/20 13:07:11;;;;;;;6.97;6.23;;;;;;;;;;5093727;28;20404;-72
2021/12/20 13:09:44;;;;;;;7.47;5.60;;;;;;;;;;5093646;28;20524;-74
2021/12/20 13:12:13;;;;;;;11.73;5.50;;;;;;;;;;5093241;28;20476;-73
2021/12/20 13:17:42;;;;;;;5.83;5.40;;;;;;;;;;5092778;28;20934;-74
2021/12/20 13:23:02;;;;;;;7.23;6.53;;;;;;;;;;5092824;28;20984;-71
2021/12/20 13:25:43;;;;;;;6.70;5.87;;;;;;;;;;5108885;28;20852;-73
2021/12/20 13:28:18;;;;;;;6.27;5.70;;;;;;;;;;5093239;28;20428;-72
2021/12/20 13:30:55;;;;;;;5.53;5.20;;;;;;;;;;5108878;28;20416;-73
2021/12/20 13:33:23;;;;;;;6.33;5.83;;;;;;;;;;5093138;28;20515;-72
2021/12/20 13:35:52;;;;;;;9.83;6.07;;;;;;;;;;5093542;28;20495;-75
2021/12/20 13:38:20;;;;;;;5.70;5.10;;;;;;;;;;5092798;28;20900;-72
2021/12/20 13:40:47;;;;;;;6.63;6.20;;;;;;;;;;5093311;28;20826;-72
2021/12/20 13:43:13;;;;;;;5.80;5.30;;;;;;;;;;5108372;28;20425;-72
2021/12/20 13:45:40;;;;;;;7.47;6.10;;;;;;;;;;5092984;28;20408;-72
2021/12/20 13:48:09;;;;;;;6.53;6.00;;;;;;;;;;5092974;28;20413;-72
2021/12/20 13:50:35;;;;;;;6.40;5.80;;;;;;;;;;5108503;28;20512;-73
2021/12/20 13:53:01;;;;;;;8.47;7.77;;;;;;;;;;5092692;28;20959;-73
2021/12/20 13:55:27;;;;;;;9.03;5.97;;;;;;;;;;5092628;28;20419;-73
2021/12/20 13:57:53;;;;;;;7.20;6.47;;;;;;;;;;5092438;28;20417;-74
2021/12/20 14:00:19;;;;;;;9.67;7.23;;;;;;;;;;5092659;28;20448;-73
2021/12/20 14:02:46;;;;;;;7.53;6.60;;;;;;;;;;5092387;28;20566;-73
2021/12/20 14:05:14;;;;;;;8.30;6.97;;;;;;;;;;5092615;28;20473;-73
2021/12/20 14:07:44;;;;;;;7.50;6.90;;;;;;;;;;5092732;28;20431;-74
2021/12/20 14:10:14;;;;;;;11.77;7.23;;;;;;;;;;5092905;28;20397;-73
2021/12/20 14:12:43;;;;;;;12.80;9.50;;;;;;;;;;5092397;28;20507;-74
2021/12/20 14:15:11;;;;;;;8.70;7.63;;;;;;;;;;5108430;28;20420;-73
2021/12/20 14:17:51;;;;;;;9.13;8.20;;;;;;;;;;5092556;28;20981;-74
2021/12/20 14:20:17;;;;;;;11.23;8.00;;;;;;;;;;5092977;28;20420;-72
2021/12/20 14:23:00;;;;;;;8.23;7.40;;;;;;;;;;5108034;28;20976;-74
2021/12/20 14:25:55;;;;;;;7.77;6.30;;;;;;;;;;5095787;28;20397;-72
2021/12/20 14:28:26;;;;;;;11.60;8.53;;;;;;;;;;5083014;28;20829;-72
2021/12/20 14:30:54;;;;;;;14.03;9.70;;;;;;;;;;5096748;28;20408;-73
2021/12/20 14:33:27;;;;;;;9.73;8.40;;;;;;;;;;5096048;28;20428;-73
2021/12/20 14:35:59;;;;;;;15.97;8.63;;;;;;;;;;5112172;28;20761;-73
2021/12/20 14:38:26;;;;;;;13.53;9.57;;;;;;;;;;5095952;28;20424;-73
2021/12/20 14:40:52;;;;;;;15.60;9.30;;;;;;;;;;5096161;28;20440;-73
2021/12/20 14:43:19;;;;;;;15.40;10.53;;;;;;;;;;5096119;28;20458;-73
2021/12/20 14:46:05;;;;;;;22.93;10.27;;;;;;;;;;5096282;28;20416;-73
2021/12/20 14:48:39;;;;;;;18.10;10.13;;;;;;;;;;5096250;28;20429;-73
2021/12/20 14:51:13;;;;;;;13.40;8.80;;;;;;;;;;5096420;28;20408;-73
2021/12/20 14:53:39;;;;;;;14.07;9.40;;;;;;;;;;5095715;28;20500;-73
2021/12/20 14:56:10;;;;;;;30.07;11.70;;;;;;;;;;5096079;28;20487;-74
2021/12/20 14:58:36;;;;;;;22.27;11.10;;;;;;;;;;5095704;28;20405;-73
2021/12/20 15:01:03;;;;;;;9.73;8.60;;;;;;;;;;5096075;28;20401;-72
2021/12/20 15:03:29;;;;;;;12.27;8.93;;;;;;;;;;5095830;28;20420;-73
2021/12/20 15:06:02;;;;;;;20.07;11.27;;;;;;;;;;5095827;28;20415;-73
2021/12/20 15:08:28;;;;;;;15.20;9.10;;;;;;;;;;5095532;28;20903;-73
2021/12/20 15:10:54;;;;;;;14.87;10.50;;;;;;;;;;5095685;28;20504;-73
2021/12/20 15:13:20;;;;;;;19.30;11.40;;;;;;;;;;5095424;28;20428;-72
2021/12/20 15:15:46;;;;;;;17.37;10.83;;;;;;;;;;5111393;28;20428;-73
2021/12/20 15:18:12;;;;;;;13.87;9.50;;;;;;;;;;5095348;28;20470;-72
2021/12/20 15:20:38;;;;;;;13.73;9.80;;;;;;;;;;5095495;28;20823;-73
2021/12/20 15:23:04;;;;;;;11.57;9.20;;;;;;;;;;5095122;28;20474;-72
2021/12/20 15:25:30;;;;;;;12.97;8.40;;;;;;;;;;5095349;28;20408;-73
2021/12/20 15:27:56;;;;;;;11.93;9.67;;;;;;;;;;5095215;28;20425;-74
2021/12/20 15:30:23;;;;;;;15.83;9.70;;;;;;;;;;5095243;28;20762;-73
2021/12/20 15:32:49;;;;;;;14.67;9.97;;;;;;;;;;5095176;28;20444;-73